Wanneroo, Australia
Current Conditions -  °F | °C
As of 10:00 PM on Monday 24 Nov 2014 (Local Time) from YPEA Reporting Station
Clear Clear  
Wind Chill: 63°   Ceiling: Unl
Heat Index: 63°   Visibility: NA
Dew Point: 54°   Wind: 6mph
Humidity: 72%   Direction: 150°SSE
Pressure: 30.06"   Gusts: NA
Location:  31.75°S, 115.81°E
Report Text: YPEA 241400Z AUTO 15005KT //// // NCD 17/12 Q1018
Loading
Personal Weather Stations






























Interactive Weather Map New forecast layout! Learn more

10-Day Weather Forecast

Advertisements
Track Severe Weather on mobile